Lupton City, TN (37351)

3:55 AM EST on December 10, 2016 (GMT -0500)
Hermit Hacienda | | Change Station

Elev 870 ft 35.14 °N, 85.29 °W | Updated 4 minutes ago

Clear
Clear
22.9 °F
Feels Like 23 °F
N
0.0
Wind Variable Wind from NNW
Gusts 0.0 mph

Today
High -- | Low -- °F
--% Chance of Precip.
Yesterday
High -- | Low -- °F
Precip. -- in
Pressure 30.56 in
Visibility 10.0 miles
Clouds Clear
Windchill 23 °F
Dew Point 18 °F
Humidity 83%
Rainfall 0.00 in
Snow Depth Not available.
7:38 AM 5:29 PM
Waxing Gibbous, 82% visible
METAR KCHA 100753Z AUTO 00000KT 10SM CLR M03/M08 A3055 RMK AO2 SLP349 T10281083
Pressure 30.56 in
Visibility 10.0 miles
Clouds Clear
Windchill 23 °F
Dew Point 18 °F
Humidity 83%
Rainfall 0.00 in
Snow Depth Not available.
7:38 AM 5:29 PM
Waxing Gibbous, 82% visible
METAR KCHA 100753Z AUTO 00000KT 10SM CLR M03/M08 A3055 RMK AO2 SLP349 T10281083

10-Day Weather Forecast

Almanac

Astronomy

Dec. 10, 2016 Rise Set
Actual Time
Civil Twilight
Nautical Twilight
Astronomical Twilight
Moon
Length of Visible Light
Length of Day
Tomorrow will be .
, % of the Moon is Illuminated

Today's Extremes

State Highs State Lows

Community

WunderPhotos

Upload Photos

1,956,538 photos uploaded!

WunderBlog® & News

Nearby

Air Quality

  Air Quality AQ Index Pollutant
Not available.

Snow Depth

Station Depth Elevation

Earthquake Activity

City Distance Mag. Time & Date
Minimum magnitude displayed is 2.5.

Coastal Water Temperatures

Place Temperature

Stations

Nearby Weather Stations

Station Location Temp. Windchill Dew Point Humidity Wind Precip. Elev Updated Type
                   

Watches & Warnings

There are currently no watches in effect.